sensor_id;sensor_type;location;lat;lon;timestamp;pressure;altitude;pressure_sealevel;temperature;humidity
62952;BME280;52163;52.212;-1.002;2023-02-22T00:00:38;100123.33;;;7.21;95.00
62952;BME280;52163;52.212;-1.002;2023-02-22T00:03:18;100117.79;;;7.23;95.12
62952;BME280;52163;52.212;-1.002;2023-02-22T00:05:50;100110.84;;;7.25;95.05
62952;BME280;52163;52.212;-1.002;2023-02-22T00:08:20;100104.76;;;7.27;95.17
62952;BME280;52163;52.212;-1.002;2023-02-22T00:10:46;100103.24;;;7.29;95.19
62952;BME280;52163;52.212;-1.002;2023-02-22T00:13:16;100100.16;;;7.31;94.89
62952;BME280;52163;52.212;-1.002;2023-02-22T00:15:42;100102.35;;;7.30;94.58
62952;BME280;52163;52.212;-1.002;2023-02-22T00:18:11;100103.42;;;7.29;94.64
62952;BME280;52163;52.212;-1.002;2023-02-22T00:20:37;100107.09;;;7.33;95.01
62952;BME280;52163;52.212;-1.002;2023-02-22T00:23:04;100105.90;;;7.35;94.95
62952;BME280;52163;52.212;-1.002;2023-02-22T00:25:34;100103.42;;;7.39;94.83
62952;BME280;52163;52.212;-1.002;2023-02-22T00:28:01;100104.12;;;7.39;94.72
62952;BME280;52163;52.212;-1.002;2023-02-22T00:30:28;100103.08;;;7.39;94.82
62952;BME280;52163;52.212;-1.002;2023-02-22T00:32:55;100103.11;;;7.38;94.61
62952;BME280;52163;52.212;-1.002;2023-02-22T00:35:23;100103.20;;;7.37;94.63
62952;BME280;52163;52.212;-1.002;2023-02-22T00:37:50;100105.89;;;7.35;94.59
62952;BME280;52163;52.212;-1.002;2023-02-22T00:40:19;100103.48;;;7.35;94.83
62952;BME280;52163;52.212;-1.002;2023-02-22T00:42:45;100108.16;;;7.36;94.75
62952;BME280;52163;52.212;-1.002;2023-02-22T00:45:12;100107.39;;;7.37;94.98
62952;BME280;52163;52.212;-1.002;2023-02-22T00:47:38;100107.05;;;7.37;94.79
62952;BME280;52163;52.212;-1.002;2023-02-22T00:50:04;100103.11;;;7.35;94.78
62952;BME280;52163;52.212;-1.002;2023-02-22T00:52:29;100098.88;;;7.32;94.66
62952;BME280;52163;52.212;-1.002;2023-02-22T00:54:56;100094.83;;;7.29;94.82
62952;BME280;52163;52.212;-1.002;2023-02-22T00:57:23;100089.19;;;7.29;95.25
62952;BME280;52163;52.212;-1.002;2023-02-22T00:59:49;100089.94;;;7.32;95.25
62952;BME280;52163;52.212;-1.002;2023-02-22T01:02:15;100087.16;;;7.31;95.19
62952;BME280;52163;52.212;-1.002;2023-02-22T01:04:41;100082.84;;;7.30;95.16
62952;BME280;52163;52.212;-1.002;2023-02-22T01:07:07;100081.84;;;7.29;95.31
62952;BME280;52163;52.212;-1.002;2023-02-22T01:09:32;100082.06;;;7.28;95.20
62952;BME280;52163;52.212;-1.002;2023-02-22T01:11:59;100074.17;;;7.24;95.14
62952;BME280;52163;52.212;-1.002;2023-02-22T01:14:26;100074.80;;;7.22;94.92
62952;BME280;52163;52.212;-1.002;2023-02-22T01:16:53;100075.81;;;7.19;95.43
62952;BME280;52163;52.212;-1.002;2023-02-22T01:19:20;100072.98;;;7.20;95.43
62952;BME280;52163;52.212;-1.002;2023-02-22T01:21:46;100062.16;;;7.22;95.94
62952;BME280;52163;52.212;-1.002;2023-02-22T01:24:13;100063.77;;;7.21;95.63
62952;BME280;52163;52.212;-1.002;2023-02-22T01:26:48;100062.51;;;7.15;95.35
62952;BME280;52163;52.212;-1.002;2023-02-22T01:29:16;100055.08;;;7.10;95.65
62952;BME280;52163;52.212;-1.002;2023-02-22T01:31:51;100056.27;;;7.07;95.81
62952;BME280;52163;52.212;-1.002;2023-02-22T01:34:20;100058.38;;;7.07;96.30
62952;BME280;52163;52.212;-1.002;2023-02-22T01:36:46;100057.31;;;7.07;96.35
62952;BME280;52163;52.212;-1.002;2023-02-22T01:39:11;100053.04;;;7.08;96.51
62952;BME280;52163;52.212;-1.002;2023-02-22T01:41:36;100049.39;;;7.11;96.86
62952;BME280;52163;52.212;-1.002;2023-02-22T01:44:38;100049.59;;;7.17;97.20
62952;BME280;52163;52.212;-1.002;2023-02-22T01:47:06;100049.05;;;7.20;96.71
62952;BME280;52163;52.212;-1.002;2023-02-22T01:52:00;100044.99;;;7.21;97.23
62952;BME280;52163;52.212;-1.002;2023-02-22T01:54:37;100045.83;;;7.22;97.08
62952;BME280;52163;52.212;-1.002;2023-02-22T01:57:17;100043.96;;;7.24;97.38
62952;BME280;52163;52.212;-1.002;2023-02-22T01:59:47;100045.76;;;7.30;98.01
62952;BME280;52163;52.212;-1.002;2023-02-22T02:02:15;100041.71;;;7.33;97.63
62952;BME280;52163;52.212;-1.002;2023-02-22T02:04:40;100041.89;;;7.36;97.81
62952;BME280;52163;52.212;-1.002;2023-02-22T02:07:10;100046.40;;;7.37;97.44
62952;BME280;52163;52.212;-1.002;2023-02-22T02:09:51;100042.42;;;7.39;97.67
62952;BME280;52163;52.212;-1.002;2023-02-22T02:12:19;100042.55;;;7.40;97.45
62952;BME280;52163;52.212;-1.002;2023-02-22T02:14:47;100037.97;;;7.40;97.33
62952;BME280;52163;52.212;-1.002;2023-02-22T02:17:15;100039.91;;;7.40;97.31
62952;BME280;52163;52.212;-1.002;2023-02-22T02:22:18;100033.77;;;7.40;97.04
62952;BME280;52163;52.212;-1.002;2023-02-22T02:27:32;100026.56;;;7.37;97.35
62952;BME280;52163;52.212;-1.002;2023-02-22T02:33:03;100025.07;;;7.29;97.52
62952;BME280;52163;52.212;-1.002;2023-02-22T02:40:51;100019.90;;;7.40;98.14
62952;BME280;52163;52.212;-1.002;2023-02-22T02:43:56;100017.45;;;7.43;97.97
62952;BME280;52163;52.212;-1.002;2023-02-22T02:46:22;100017.52;;;7.42;97.45
62952;BME280;52163;52.212;-1.002;2023-02-22T02:48:52;100020.02;;;7.41;97.56
62952;BME280;52163;52.212;-1.002;2023-02-22T02:51:23;100014.30;;;7.36;97.03
62952;BME280;52163;52.212;-1.002;2023-02-22T02:53:53;100017.09;;;7.34;97.59
62952;BME280;52163;52.212;-1.002;2023-02-22T02:56:19;100013.88;;;7.34;97.85
62952;BME280;52163;52.212;-1.002;2023-02-22T02:58:50;100009.73;;;7.33;97.50
62952;BME280;52163;52.212;-1.002;2023-02-22T03:04:01;100007.23;;;7.31;97.61
62952;BME280;52163;52.212;-1.002;2023-02-22T03:07:04;100002.84;;;7.27;97.47
62952;BME280;52163;52.212;-1.002;2023-02-22T03:17:47;99990.52;;;7.21;98.09
62952;BME280;52163;52.212;-1.002;2023-02-22T03:20:26;99992.53;;;7.20;98.48
62952;BME280;52163;52.212;-1.002;2023-02-22T03:23:09;99988.26;;;7.21;99.17
62952;BME280;52163;52.212;-1.002;2023-02-22T03:25:49;99984.84;;;7.22;99.01
62952;BME280;52163;52.212;-1.002;2023-02-22T03:28:17;99976.17;;;7.20;99.09
62952;BME280;52163;52.212;-1.002;2023-02-22T03:30:48;99969.89;;;7.19;99.02
62952;BME280;52163;52.212;-1.002;2023-02-22T03:33:30;99971.38;;;7.18;99.23
62952;BME280;52163;52.212;-1.002;2023-02-22T03:36:02;99967.55;;;7.17;99.33
62952;BME280;52163;52.212;-1.002;2023-02-22T03:38:31;99964.89;;;7.18;99.45
62952;BME280;52163;52.212;-1.002;2023-02-22T03:41:00;99965.56;;;7.18;99.57
62952;BME280;52163;52.212;-1.002;2023-02-22T03:43:53;99966.85;;;7.17;99.41
62952;BME280;52163;52.212;-1.002;2023-02-22T03:46:22;99967.55;;;7.14;99.16
62952;BME280;52163;52.212;-1.002;2023-02-22T03:48:50;99965.20;;;7.11;99.28
62952;BME280;52163;52.212;-1.002;2023-02-22T03:51:19;99965.65;;;7.10;99.49
62952;BME280;52163;52.212;-1.002;2023-02-22T03:53:45;99965.14;;;7.10;99.67
62952;BME280;52163;52.212;-1.002;2023-02-22T03:56:17;99962.38;;;7.09;99.60
62952;BME280;52163;52.212;-1.002;2023-02-22T03:58:45;99960.30;;;7.08;99.47
62952;BME280;52163;52.212;-1.002;2023-02-22T04:01:12;99962.56;;;7.06;99.54
62952;BME280;52163;52.212;-1.002;2023-02-22T04:03:38;99958.89;;;7.05;99.88
62952;BME280;52163;52.212;-1.002;2023-02-22T04:06:05;99960.87;;;7.02;99.61
62952;BME280;52163;52.212;-1.002;2023-02-22T04:08:30;99957.95;;;7.00;99.90
62952;BME280;52163;52.212;-1.002;2023-02-22T04:10:56;99954.27;;;7.00;99.91
62952;BME280;52163;52.212;-1.002;2023-02-22T04:13:22;99951.65;;;6.99;99.65
62952;BME280;52163;52.212;-1.002;2023-02-22T04:15:47;99946.25;;;6.98;99.65
62952;BME280;52163;52.212;-1.002;2023-02-22T04:18:12;99947.91;;;6.97;99.67
62952;BME280;52163;52.212;-1.002;2023-02-22T04:20:38;99949.48;;;6.97;99.66
62952;BME280;52163;52.212;-1.002;2023-02-22T04:23:03;99950.23;;;6.96;99.77
62952;BME280;52163;52.212;-1.002;2023-02-22T04:25:29;99946.90;;;6.96;99.82
62952;BME280;52163;52.212;-1.002;2023-02-22T04:27:54;99948.52;;;6.95;100.00
62952;BME280;52163;52.212;-1.002;2023-02-22T04:30:20;99944.29;;;6.93;99.81
62952;BME280;52163;52.212;-1.002;2023-02-22T04:32:46;99945.45;;;6.90;99.97
62952;BME280;52163;52.212;-1.002;2023-02-22T04:35:11;99942.81;;;6.90;100.00
62952;BME280;52163;52.212;-1.002;2023-02-22T04:37:37;99940.47;;;6.91;100.00
62952;BME280;52163;52.212;-1.002;2023-02-22T04:40:04;99934.55;;;6.94;100.00
62952;BME280;52163;52.212;-1.002;2023-02-22T04:42:36;99931.66;;;6.95;100.00
62952;BME280;52163;52.212;-1.002;2023-02-22T04:45:07;99928.02;;;6.98;100.00
62952;BME280;52163;52.212;-1.002;2023-02-22T04:47:34;99927.80;;;6.98;100.00
62952;BME280;52163;52.212;-1.002;2023-02-22T04:50:00;99925.82;;;7.00;100.00
62952;BME280;52163;52.212;-1.002;2023-02-22T04:52:26;99923.17;;;7.01;100.00
62952;BME280;52163;52.212;-1.002;2023-02-22T04:54:52;99923.19;;;7.00;100.00
62952;BME280;52163;52.212;-1.002;2023-02-22T04:57:17;99920.92;;;7.03;100.00
62952;BME280;52163;52.212;-1.002;2023-02-22T04:59:43;99920.58;;;7.06;100.00
62952;BME280;52163;52.212;-1.002;2023-02-22T05:02:08;99916.03;;;7.09;100.00
62952;BME280;52163;52.212;-1.002;2023-02-22T05:04:36;99916.72;;;7.12;100.00
62952;BME280;52163;52.212;-1.002;2023-02-22T05:07:02;99915.92;;;7.14;100.00
62952;BME280;52163;52.212;-1.002;2023-02-22T05:09:27;99919.34;;;7.12;100.00
62952;BME280;52163;52.212;-1.002;2023-02-22T05:11:52;99916.37;;;7.12;100.00
62952;BME280;52163;52.212;-1.002;2023-02-22T05:14:18;99916.61;;;7.14;100.00
62952;BME280;52163;52.212;-1.002;2023-02-22T05:16:43;99917.44;;;7.15;100.00
62952;BME280;52163;52.212;-1.002;2023-02-22T05:19:08;99922.22;;;7.14;100.00
62952;BME280;52163;52.212;-1.002;2023-02-22T05:21:34;99916.80;;;7.14;100.00
62952;BME280;52163;52.212;-1.002;2023-02-22T05:23:59;99914.44;;;7.12;100.00
62952;BME280;52163;52.212;-1.002;2023-02-22T05:26:24;99911.91;;;7.10;100.00
62952;BME280;52163;52.212;-1.002;2023-02-22T05:28:50;99908.75;;;7.07;100.00
62952;BME280;52163;52.212;-1.002;2023-02-22T05:31:15;99910.02;;;7.06;100.00
62952;BME280;52163;52.212;-1.002;2023-02-22T05:33:41;99907.95;;;7.05;100.00
62952;BME280;52163;52.212;-1.002;2023-02-22T05:36:08;99909.15;;;7.03;100.00
62952;BME280;52163;52.212;-1.002;2023-02-22T05:38:35;99907.64;;;7.01;100.00
62952;BME280;52163;52.212;-1.002;2023-02-22T05:41:08;99907.16;;;7.01;100.00
62952;BME280;52163;52.212;-1.002;2023-02-22T05:43:34;99907.17;;;7.00;100.00
62952;BME280;52163;52.212;-1.002;2023-02-22T05:46:00;99908.56;;;7.01;100.00
62952;BME280;52163;52.212;-1.002;2023-02-22T05:48:25;99907.45;;;7.02;100.00
62952;BME280;52163;52.212;-1.002;2023-02-22T05:50:50;99911.02;;;7.01;100.00
62952;BME280;52163;52.212;-1.002;2023-02-22T05:53:16;99910.27;;;7.02;100.00
62952;BME280;52163;52.212;-1.002;2023-02-22T05:55:41;99905.50;;;7.03;100.00
62952;BME280;52163;52.212;-1.002;2023-02-22T05:58:06;99900.19;;;7.03;100.00
62952;BME280;52163;52.212;-1.002;2023-02-22T06:00:32;99896.23;;;7.05;100.00
62952;BME280;52163;52.212;-1.002;2023-02-22T06:03:06;99899.25;;;7.07;100.00
62952;BME280;52163;52.212;-1.002;2023-02-22T06:05:34;99897.77;;;7.08;100.00
62952;BME280;52163;52.212;-1.002;2023-02-22T06:08:00;99897.41;;;7.09;100.00
62952;BME280;52163;52.212;-1.002;2023-02-22T06:10:26;99897.70;;;7.06;100.00
62952;BME280;52163;52.212;-1.002;2023-02-22T06:12:52;99890.50;;;7.04;100.00
62952;BME280;52163;52.212;-1.002;2023-02-22T06:15:20;99887.77;;;7.02;100.00
62952;BME280;52163;52.212;-1.002;2023-02-22T06:17:46;99885.73;;;7.01;100.00
62952;BME280;52163;52.212;-1.002;2023-02-22T06:20:14;99889.55;;;7.02;100.00
62952;BME280;52163;52.212;-1.002;2023-02-22T06:22:40;99886.41;;;7.04;100.00
62952;BME280;52163;52.212;-1.002;2023-02-22T06:25:07;99887.29;;;7.05;100.00
62952;BME280;52163;52.212;-1.002;2023-02-22T06:27:33;99887.39;;;7.03;100.00
62952;BME280;52163;52.212;-1.002;2023-02-22T06:30:00;99891.16;;;6.98;100.00
62952;BME280;52163;52.212;-1.002;2023-02-22T06:32:26;99890.46;;;6.94;100.00
62952;BME280;52163;52.212;-1.002;2023-02-22T06:34:52;99889.10;;;6.93;100.00
62952;BME280;52163;52.212;-1.002;2023-02-22T06:37:17;99886.70;;;6.92;100.00
62952;BME280;52163;52.212;-1.002;2023-02-22T06:39:43;99884.51;;;6.91;100.00
62952;BME280;52163;52.212;-1.002;2023-02-22T06:42:08;99887.77;;;6.92;100.00
62952;BME280;52163;52.212;-1.002;2023-02-22T06:44:33;99889.61;;;6.94;100.00
62952;BME280;52163;52.212;-1.002;2023-02-22T06:46:59;99886.48;;;6.93;100.00
62952;BME280;52163;52.212;-1.002;2023-02-22T06:49:25;99888.02;;;6.94;100.00
62952;BME280;52163;52.212;-1.002;2023-02-22T06:51:52;99884.88;;;6.94;100.00
62952;BME280;52163;52.212;-1.002;2023-02-22T06:54:18;99884.95;;;6.92;100.00
62952;BME280;52163;52.212;-1.002;2023-02-22T06:56:44;99881.42;;;6.92;100.00
62952;BME280;52163;52.212;-1.002;2023-02-22T06:59:09;99879.27;;;6.90;100.00
62952;BME280;52163;52.212;-1.002;2023-02-22T07:01:34;99883.43;;;6.91;100.00
62952;BME280;52163;52.212;-1.002;2023-02-22T07:04:00;99890.86;;;6.90;100.00
62952;BME280;52163;52.212;-1.002;2023-02-22T07:06:25;99888.52;;;6.85;100.00
62952;BME280;52163;52.212;-1.002;2023-02-22T07:08:51;99886.95;;;6.81;100.00
62952;BME280;52163;52.212;-1.002;2023-02-22T07:11:17;99889.52;;;6.79;100.00
62952;BME280;52163;52.212;-1.002;2023-02-22T07:13:42;99889.83;;;6.77;100.00
62952;BME280;52163;52.212;-1.002;2023-02-22T07:16:08;99889.80;;;6.74;100.00
62952;BME280;52163;52.212;-1.002;2023-02-22T07:18:33;99886.92;;;6.75;100.00
62952;BME280;52163;52.212;-1.002;2023-02-22T07:20:58;99885.42;;;6.77;100.00
62952;BME280;52163;52.212;-1.002;2023-02-22T07:23:24;99885.45;;;6.77;100.00
62952;BME280;52163;52.212;-1.002;2023-02-22T07:25:49;99883.16;;;6.77;100.00
62952;BME280;52163;52.212;-1.002;2023-02-22T07:28:15;99884.63;;;6.76;100.00
62952;BME280;52163;52.212;-1.002;2023-02-22T07:30:40;99885.75;;;6.78;100.00
62952;BME280;52163;52.212;-1.002;2023-02-22T07:33:09;99891.85;;;6.78;100.00
62952;BME280;52163;52.212;-1.002;2023-02-22T07:35:43;99891.67;;;6.82;100.00
62952;BME280;52163;52.212;-1.002;2023-02-22T07:38:12;99891.81;;;6.86;100.00
62952;BME280;52163;52.212;-1.002;2023-02-22T07:40:40;99896.75;;;6.91;100.00
62952;BME280;52163;52.212;-1.002;2023-02-22T07:43:20;99897.00;;;6.94;100.00
62952;BME280;52163;52.212;-1.002;2023-02-22T07:45:48;99894.49;;;6.94;100.00
62952;BME280;52163;52.212;-1.002;2023-02-22T07:48:15;99897.77;;;6.95;100.00
62952;BME280;52163;52.212;-1.002;2023-02-22T07:50:41;99898.95;;;6.96;100.00
62952;BME280;52163;52.212;-1.002;2023-02-22T07:53:22;99902.59;;;6.97;100.00
62952;BME280;52163;52.212;-1.002;2023-02-22T07:55:48;99901.34;;;7.01;100.00
62952;BME280;52163;52.212;-1.002;2023-02-22T07:58:19;99904.66;;;7.05;100.00
62952;BME280;52163;52.212;-1.002;2023-02-22T08:00:46;99904.15;;;7.08;100.00
62952;BME280;52163;52.212;-1.002;2023-02-22T08:03:14;99907.38;;;7.13;100.00
62952;BME280;52163;52.212;-1.002;2023-02-22T08:05:43;99912.19;;;7.18;100.00
62952;BME280;52163;52.212;-1.002;2023-02-22T08:08:09;99912.53;;;7.21;100.00
62952;BME280;52163;52.212;-1.002;2023-02-22T08:10:35;99913.55;;;7.25;100.00
62952;BME280;52163;52.212;-1.002;2023-02-22T08:13:02;99914.28;;;7.28;100.00
62952;BME280;52163;52.212;-1.002;2023-02-22T08:15:36;99916.27;;;7.30;100.00
62952;BME280;52163;52.212;-1.002;2023-02-22T08:18:04;99916.45;;;7.33;100.00
62952;BME280;52163;52.212;-1.002;2023-02-22T08:20:30;99912.69;;;7.37;100.00
62952;BME280;52163;52.212;-1.002;2023-02-22T08:22:56;99913.17;;;7.41;100.00
62952;BME280;52163;52.212;-1.002;2023-02-22T08:25:25;99913.23;;;7.43;100.00
62952;BME280;52163;52.212;-1.002;2023-02-22T08:27:52;99911.10;;;7.44;100.00
62952;BME280;52163;52.212;-1.002;2023-02-22T08:30:23;99911.95;;;7.44;100.00
62952;BME280;52163;52.212;-1.002;2023-02-22T08:32:49;99913.00;;;7.47;100.00
62952;BME280;52163;52.212;-1.002;2023-02-22T08:35:20;99914.75;;;7.54;100.00
62952;BME280;52163;52.212;-1.002;2023-02-22T08:37:48;99917.98;;;7.59;100.00
62952;BME280;52163;52.212;-1.002;2023-02-22T08:40:16;99918.73;;;7.61;100.00
62952;BME280;52163;52.212;-1.002;2023-02-22T08:42:43;99918.59;;;7.64;100.00
62952;BME280;52163;52.212;-1.002;2023-02-22T08:45:09;99920.05;;;7.66;100.00
62952;BME280;52163;52.212;-1.002;2023-02-22T08:47:34;99920.14;;;7.67;100.00
62952;BME280;52163;52.212;-1.002;2023-02-22T08:50:00;99916.09;;;7.70;100.00
62952;BME280;52163;52.212;-1.002;2023-02-22T08:52:26;99919.20;;;7.74;100.00
62952;BME280;52163;52.212;-1.002;2023-02-22T08:54:51;99922.75;;;7.77;100.00
62952;BME280;52163;52.212;-1.002;2023-02-22T08:57:16;99918.05;;;7.76;100.00
62952;BME280;52163;52.212;-1.002;2023-02-22T08:59:42;99918.77;;;7.76;100.00
62952;BME280;52163;52.212;-1.002;2023-02-22T09:02:19;99921.68;;;7.77;100.00
62952;BME280;52163;52.212;-1.002;2023-02-22T09:04:45;99924.50;;;7.80;100.00
62952;BME280;52163;52.212;-1.002;2023-02-22T09:07:12;99919.52;;;7.84;100.00
62952;BME280;52163;52.212;-1.002;2023-02-22T09:09:38;99920.63;;;7.86;100.00
62952;BME280;52163;52.212;-1.002;2023-02-22T09:12:04;99918.98;;;7.84;99.94
62952;BME280;52163;52.212;-1.002;2023-02-22T09:14:29;99920.45;;;7.83;99.87
62952;BME280;52163;52.212;-1.002;2023-02-22T09:16:55;99923.48;;;7.82;100.00
62952;BME280;52163;52.212;-1.002;2023-02-22T09:19:20;99913.94;;;7.83;99.93
62952;BME280;52163;52.212;-1.002;2023-02-22T09:21:56;99917.09;;;7.90;100.00
62952;BME280;52163;52.212;-1.002;2023-02-22T09:24:23;99920.40;;;8.00;100.00
62952;BME280;52163;52.212;-1.002;2023-02-22T09:26:49;99926.11;;;8.07;100.00
62952;BME280;52163;52.212;-1.002;2023-02-22T09:29:20;99929.48;;;8.12;100.00
62952;BME280;52163;52.212;-1.002;2023-02-22T09:31:48;99926.59;;;8.13;99.73
62952;BME280;52163;52.212;-1.002;2023-02-22T09:34:14;99927.54;;;8.16;99.80
62952;BME280;52163;52.212;-1.002;2023-02-22T09:36:41;99925.67;;;8.14;99.73
62952;BME280;52163;52.212;-1.002;2023-02-22T09:39:08;99927.26;;;8.14;99.63
62952;BME280;52163;52.212;-1.002;2023-02-22T09:44:19;99921.15;;;8.19;99.47
62952;BME280;52163;52.212;-1.002;2023-02-22T09:46:48;99924.08;;;8.26;99.35
62952;BME280;52163;52.212;-1.002;2023-02-22T09:51:59;99926.98;;;8.37;98.97
62952;BME280;52163;52.212;-1.002;2023-02-22T09:54:40;99926.15;;;8.41;99.44
62952;BME280;52163;52.212;-1.002;2023-02-22T09:57:12;99930.21;;;8.48;99.28
62952;BME280;52163;52.212;-1.002;2023-02-22T09:59:45;99932.70;;;8.53;98.76
62952;BME280;52163;52.212;-1.002;2023-02-22T10:02:29;99933.16;;;8.61;98.82
62952;BME280;52163;52.212;-1.002;2023-02-22T10:05:21;99934.51;;;8.67;98.70
62952;BME280;52163;52.212;-1.002;2023-02-22T10:08:00;99933.70;;;8.77;98.65
62952;BME280;52163;52.212;-1.002;2023-02-22T10:10:35;99936.29;;;8.84;98.07
62952;BME280;52163;52.212;-1.002;2023-02-22T10:15:44;99939.09;;;8.87;97.11
62952;BME280;52163;52.212;-1.002;2023-02-22T10:26:42;99938.89;;;9.16;96.43
62952;BME280;52163;52.212;-1.002;2023-02-22T10:29:38;99942.75;;;9.13;95.64
62952;BME280;52163;52.212;-1.002;2023-02-22T10:32:07;99949.06;;;9.06;95.63
62952;BME280;52163;52.212;-1.002;2023-02-22T10:34:47;99952.42;;;9.03;96.02
62952;BME280;52163;52.212;-1.002;2023-02-22T10:37:28;99952.59;;;9.00;95.95
62952;BME280;52163;52.212;-1.002;2023-02-22T10:42:36;99957.55;;;8.96;96.30
62952;BME280;52163;52.212;-1.002;2023-02-22T10:45:01;99954.13;;;8.97;95.89
62952;BME280;52163;52.212;-1.002;2023-02-22T10:47:27;99956.67;;;8.99;95.85
62952;BME280;52163;52.212;-1.002;2023-02-22T10:49:56;99959.29;;;9.06;95.77
62952;BME280;52163;52.212;-1.002;2023-02-22T10:52:32;99959.33;;;9.08;95.18
62952;BME280;52163;52.212;-1.002;2023-02-22T10:55:00;99959.39;;;9.12;95.29
62952;BME280;52163;52.212;-1.002;2023-02-22T10:57:31;99958.00;;;9.17;94.73
62952;BME280;52163;52.212;-1.002;2023-02-22T11:00:13;99963.70;;;9.25;94.60
62952;BME280;52163;52.212;-1.002;2023-02-22T11:02:53;99963.10;;;9.26;93.98
62952;BME280;52163;52.212;-1.002;2023-02-22T11:08:21;99962.44;;;9.28;94.31
62952;BME280;52163;52.212;-1.002;2023-02-22T11:10:48;99964.96;;;9.27;94.04
62952;BME280;52163;52.212;-1.002;2023-02-22T11:13:37;99963.30;;;9.26;93.92
62952;BME280;52163;52.212;-1.002;2023-02-22T11:19:20;99961.05;;;9.25;93.14
62952;BME280;52163;52.212;-1.002;2023-02-22T11:21:50;99960.52;;;9.39;92.88
62952;BME280;52163;52.212;-1.002;2023-02-22T11:24:19;99961.55;;;9.48;92.58
62952;BME280;52163;52.212;-1.002;2023-02-22T11:26:53;99965.48;;;9.44;91.93
62952;BME280;52163;52.212;-1.002;2023-02-22T11:29:30;99964.98;;;9.41;91.87
62952;BME280;52163;52.212;-1.002;2023-02-22T11:31:57;99965.85;;;9.44;91.83
62952;BME280;52163;52.212;-1.002;2023-02-22T11:34:32;99967.26;;;9.55;91.91
62952;BME280;52163;52.212;-1.002;2023-02-22T11:39:39;99967.94;;;9.55;91.09
62952;BME280;52163;52.212;-1.002;2023-02-22T11:44:46;99971.91;;;9.37;90.87
62952;BME280;52163;52.212;-1.002;2023-02-22T11:47:12;99972.98;;;9.29;90.54
62952;BME280;52163;52.212;-1.002;2023-02-22T11:49:41;99975.36;;;9.22;90.48
62952;BME280;52163;52.212;-1.002;2023-02-22T12:00:42;99977.45;;;9.36;89.74
62952;BME280;52163;52.212;-1.002;2023-02-22T12:17:15;99988.60;;;8.61;87.23
62952;BME280;52163;52.212;-1.002;2023-02-22T12:20:00;99989.15;;;8.60;87.08
62952;BME280;52163;52.212;-1.002;2023-02-22T12:22:33;99986.66;;;8.73;86.77
62952;BME280;52163;52.212;-1.002;2023-02-22T12:27:45;99993.80;;;8.83;86.55
62952;BME280;52163;52.212;-1.002;2023-02-22T12:30:20;99999.74;;;8.89;86.28
62952;BME280;52163;52.212;-1.002;2023-02-22T12:32:57;100002.36;;;8.95;85.69
62952;BME280;52163;52.212;-1.002;2023-02-22T12:35:26;100000.13;;;9.03;85.14
62952;BME280;52163;52.212;-1.002;2023-02-22T12:38:22;99999.55;;;9.09;84.65
62952;BME280;52163;52.212;-1.002;2023-02-22T12:41:14;100002.10;;;9.11;84.02
62952;BME280;52163;52.212;-1.002;2023-02-22T12:44:25;100003.51;;;9.14;84.04
62952;BME280;52163;52.212;-1.002;2023-02-22T12:46:54;99998.42;;;9.28;84.20
62952;BME280;52163;52.212;-1.002;2023-02-22T12:49:47;99999.82;;;9.50;84.01
62952;BME280;52163;52.212;-1.002;2023-02-22T12:55:20;100001.85;;;9.52;82.63
62952;BME280;52163;52.212;-1.002;2023-02-22T13:00:23;100010.98;;;9.50;81.28
62952;BME280;52163;52.212;-1.002;2023-02-22T13:05:22;100013.35;;;9.26;80.94
62952;BME280;52163;52.212;-1.002;2023-02-22T13:10:34;100017.14;;;9.10;80.86
62952;BME280;52163;52.212;-1.002;2023-02-22T13:15:43;100024.30;;;9.17;80.87
62952;BME280;52163;52.212;-1.002;2023-02-22T13:21:02;100017.70;;;9.47;80.33
62952;BME280;52163;52.212;-1.002;2023-02-22T13:23:38;100014.58;;;9.62;79.60
62952;BME280;52163;52.212;-1.002;2023-02-22T13:26:25;100012.02;;;9.80;78.69
62952;BME280;52163;52.212;-1.002;2023-02-22T13:29:04;100015.04;;;9.97;77.26
62952;BME280;52163;52.212;-1.002;2023-02-22T13:32:03;100007.90;;;10.08;76.16
62952;BME280;52163;52.212;-1.002;2023-02-22T13:37:49;100005.65;;;10.26;74.57
62952;BME280;52163;52.212;-1.002;2023-02-22T13:43:23;100010.74;;;9.92;74.19
62952;BME280;52163;52.212;-1.002;2023-02-22T13:51:50;100012.98;;;9.63;72.72
62952;BME280;52163;52.212;-1.002;2023-02-22T13:54:26;100018.64;;;9.68;73.03
62952;BME280;52163;52.212;-1.002;2023-02-22T13:56:55;100018.21;;;9.69;72.74
62952;BME280;52163;52.212;-1.002;2023-02-22T13:59:34;100020.68;;;9.72;72.77
62952;BME280;52163;52.212;-1.002;2023-02-22T14:02:01;100019.87;;;9.76;72.46
62952;BME280;52163;52.212;-1.002;2023-02-22T14:17:34;100017.58;;;10.38;71.30
62952;BME280;52163;52.212;-1.002;2023-02-22T14:22:39;100011.13;;;10.40;69.62
62952;BME280;52163;52.212;-1.002;2023-02-22T14:25:39;100011.06;;;10.30;69.62
62952;BME280;52163;52.212;-1.002;2023-02-22T14:34:01;100016.47;;;10.04;68.18
62952;BME280;52163;52.212;-1.002;2023-02-22T14:37:03;100019.08;;;9.97;68.11
62952;BME280;52163;52.212;-1.002;2023-02-22T14:39:36;100021.06;;;9.96;68.01
62952;BME280;52163;52.212;-1.002;2023-02-22T14:42:09;100017.25;;;10.00;68.02
62952;BME280;52163;52.212;-1.002;2023-02-22T14:47:28;100010.67;;;10.14;68.62
62952;BME280;52163;52.212;-1.002;2023-02-22T14:50:01;100015.16;;;10.19;69.23
62952;BME280;52163;52.212;-1.002;2023-02-22T14:52:28;100021.45;;;10.17;69.81
62952;BME280;52163;52.212;-1.002;2023-02-22T14:57:53;100028.25;;;9.91;70.66
62952;BME280;52163;52.212;-1.002;2023-02-22T15:00:26;100030.18;;;9.78;70.80
62952;BME280;52163;52.212;-1.002;2023-02-22T15:02:59;100030.15;;;9.65;70.81
62952;BME280;52163;52.212;-1.002;2023-02-22T15:05:27;100034.55;;;9.53;70.74
62952;BME280;52163;52.212;-1.002;2023-02-22T15:08:00;100033.50;;;9.42;70.75
62952;BME280;52163;52.212;-1.002;2023-02-22T15:10:38;100030.65;;;9.31;70.91
62952;BME280;52163;52.212;-1.002;2023-02-22T15:13:15;100026.48;;;9.21;71.45
62952;BME280;52163;52.212;-1.002;2023-02-22T15:15:47;100029.12;;;9.13;71.66
62952;BME280;52163;52.212;-1.002;2023-02-22T15:18:20;100032.13;;;9.07;71.98
62952;BME280;52163;52.212;-1.002;2023-02-22T15:20:50;100028.02;;;8.99;72.31
62952;BME280;52163;52.212;-1.002;2023-02-22T15:23:22;100029.33;;;8.93;72.53
62952;BME280;52163;52.212;-1.002;2023-02-22T15:25:49;100030.77;;;8.89;72.87